Ashford, AL

5:10 PM CDT on August 03, 2015 (GMT -0500)
Carver Magnet School WeatherSTEM | | Change Station
CLOSE
Current Station
Personal Weather Station
Location: Dothan, AL
Elevation: 351 ft
Nearby Weather Stations

Elev 351 ft 31.24 °N, 85.38 °W | Updated 7 minutes ago

Mostly Cloudy
Mostly Cloudy
87.6 °F
Feels Like 95 °F
N
1.0
Wind Variable Wind from SSW
Gusts 3.0 mph

Today
High -- | Low -- °F
--% Chance of Precip.
Yesterday
High -- | Low -- °F
Precip. -- in
5:58 AM 7:34 PM
Waning Gibbous, 83% visible
Pressure 29.88 in
Visibility 10.0 miles
Clouds Overcast 7000 ft
Heat Index 95 °F
Dew Point 72 °F
Humidity 61%
Rainfall in
Snow Depth Not available.
UV 1.8 out of 12
Pollen 5.30 out of 12
Air Quality Not available.
Flu Activity Not available.
METAR KDHN 032153Z 14006KT 10SM OVC070 34/19 A2990 RMK AO2 SLP119 T03440189

More Conditions Fewer Conditions

Pressure 29.88 in
Visibility 10.0 miles
Clouds Overcast 7000 ft
Heat Index 95 °F
Dew Point 72 °F
Humidity 61%
Rainfall in
Snow Depth Not available.
UV 1.8 out of 12
Pollen 5.30 out of 12
Air Quality Not available.
Flu Activity Not available.
METAR KDHN 032153Z 14006KT 10SM OVC070 34/19 A2990 RMK AO2 SLP119 T03440189

More Conditions Fewer Conditions

10-Day Weather Forecast

×

Almanac

Astronomy

Aug. 03, 2015 Rise Set
Actual Time
Civil Twilight
Nautical Twilight
Astronomical Twilight
Moon
Length of Visible Light
Length of Day
Tomorrow will be .
, % of the Moon is Illuminated

Today's Extremes

State Highs State Lows

Community

WunderPhotos

Upload Photos

1,843,782 photos uploaded!

WunderBlogs® & News

Nearby

Air Quality

  Air Quality AQ Index Pollutant
Not available.

Snow Depth

Station Depth Elevation

Earthquake Activity

City Distance Mag. Time & Date
Minimum magnitude displayed is 2.5.

Coastal Water Temperatures

Place Temperature

Stations

Nearby Weather Stations

Station Location Temp. Windchill Dew Point Humidity Wind Precip. Elev Updated Type